Time;durP1;ratioP1;P1;durP2;ratioP2;P2;SDS_P1;SDS_P2;PMS_P1;PMS_P2;Temp;Humidity;BMP_temperature;BMP_pressure;BME280_temperature;BME280_humidity;BME280_pressure;Samples;Min_cycle;Max_cycle;Signal;HPM_P1;HPM_P2
2022/09/08 00:00:44;;;;;;;14.98;13.68;;;19.40;61.50;;;;;;5002997;28;20247;-71
2022/09/08 00:03:14;;;;;;;16.75;15.15;;;19.40;57.50;;;;;;5004876;28;20672;-71
2022/09/08 00:06:03;;;;;;;14.07;12.73;;;19.40;38.30;;;;;;5004149;28;20200;-70
2022/09/08 00:08:30;;;;;;;15.70;14.20;;;19.30;99.90;;;;;;4995484;28;20189;-70
2022/09/08 00:11:01;;;;;;;13.30;11.90;;;19.20;99.90;;;;;;5002374;28;20197;-71
2022/09/08 00:13:32;;;;;;;16.27;14.68;;;19.30;99.90;;;;;;4980855;28;20297;-70
2022/09/08 00:16:03;;;;;;;14.77;13.38;;;19.30;99.90;;;;;;4986242;28;20233;-70
2022/09/08 00:18:36;;;;;;;15.68;14.27;;;19.20;99.90;;;;;;5001980;28;20192;-65
2022/09/08 00:21:03;;;;;;;15.13;13.65;;;19.20;99.90;;;;;;5002651;28;20197;-66
2022/09/08 00:23:30;;;;;;;14.98;13.32;;;19.30;99.90;;;;;;5000951;28;20255;-67
2022/09/08 00:25:57;;;;;;;14.35;12.85;;;19.50;41.10;;;;;;5002933;28;20205;-66
2022/09/08 00:28:24;;;;;;;13.20;11.85;;;19.60;1.00;;;;;;5006568;28;20208;-69
2022/09/08 00:30:54;;;;;;;13.85;12.52;;;19.60;1.00;;;;;;5006540;28;20228;-68
2022/09/08 00:33:23;;;;;;;14.02;12.55;;;19.70;1.00;;;;;;5004933;28;20223;-68
2022/09/08 00:35:51;;;;;;;14.82;12.90;;;19.50;1.00;;;;;;4987433;28;20235;-68
2022/09/08 00:38:19;;;;;;;15.13;13.77;;;19.50;1.00;;;;;;4981629;28;20683;-68
2022/09/08 00:40:49;;;;;;;15.40;13.93;;;19.40;1.00;;;;;;5002561;28;20197;-69
2022/09/08 00:43:34;;;;;;;14.30;12.85;;;19.30;50.30;;;;;;5002892;28;20830;-72
2022/09/08 00:46:18;;;;;;;15.20;13.68;;;19.30;92.20;;;;;;5002799;28;20679;-69
2022/09/08 00:49:21;;;;;;;15.57;14.07;;;19.40;50.60;;;;;;5004457;28;20203;-69
2022/09/08 00:51:54;;;;;;;15.75;14.27;;;19.50;13.40;;;;;;4982466;28;20204;-69
2022/09/08 00:54:21;;;;;;;16.40;14.80;;;19.40;22.40;;;;;;4987624;28;20344;-71
2022/09/08 00:56:49;;;;;;;16.65;14.95;;;19.20;92.80;;;;;;5004205;28;20197;-71
2022/09/08 00:59:23;;;;;;;14.93;13.40;;;19.40;65.70;;;;;;4997072;28;20667;-71
2022/09/08 01:01:51;;;;;;;15.35;13.85;;;19.50;25.30;;;;;;5004818;28;20200;-69
2022/09/08 01:04:19;;;;;;;18.05;16.25;;;19.40;47.70;;;;;;5002998;28;20712;-70
2022/09/08 01:12:45;;;;;;;26.55;17.65;;;18.90;99.90;;;;;;5004820;28;20191;-70
2022/09/08 01:15:20;;;;;;;15.13;13.63;;;19.00;99.90;;;;;;5000468;28;20587;-69
2022/09/08 01:17:51;;;;;;;18.10;16.33;;;19.20;99.90;;;;;;5002477;28;20566;-69
2022/09/08 01:20:22;;;;;;;15.82;14.23;;;19.30;99.90;;;;;;4998933;28;20206;-69
2022/09/08 01:23:09;;;;;;;18.35;16.50;;;19.40;97.70;;;;;;5002747;28;20193;-69
2022/09/08 01:25:53;;;;;;;17.83;16.20;;;19.40;56.10;;;;;;4987702;28;20208;-69
2022/09/08 01:28:54;;;;;;;18.60;16.90;;;19.40;54.80;;;;;;5003269;28;20197;-68
2022/09/08 01:31:22;;;;;;;19.98;17.25;;;19.60;12.40;;;;;;4975761;28;20260;-70
2022/09/08 01:33:50;;;;;;;19.33;17.27;;;19.60;1.00;;;;;;5007874;28;20223;-70
2022/09/08 01:36:18;;;;;;;19.27;17.33;;;19.40;60.30;;;;;;4982489;28;20318;-70
2022/09/08 01:38:46;;;;;;;18.90;16.92;;;19.40;64.10;;;;;;5006646;28;20664;-72
2022/09/08 01:41:16;;;;;;;16.63;15.02;;;19.40;66.30;;;;;;5009196;28;20196;-71
2022/09/08 01:43:43;;;;;;;20.60;18.60;;;19.50;66.50;;;;;;5023987;23;20234;-81
2022/09/08 01:46:11;;;;;;;21.02;18.83;;;19.40;85.70;;;;;;5037371;28;20268;-78
2022/09/08 01:48:38;;;;;;;20.48;18.42;;;19.30;99.90;;;;;;5035982;28;20185;-79
2022/09/08 01:51:07;;;;;;;22.88;20.48;;;19.10;99.90;;;;;;5033036;28;20220;-78
2022/09/08 01:53:35;;;;;;;22.15;20.02;;;18.90;99.90;;;;;;5054434;28;20226;-80
2022/09/08 01:56:05;;;;;;;20.77;18.80;;;18.80;99.90;;;;;;5044077;28;20198;-82
2022/09/08 01:58:35;;;;;;;21.13;19.23;;;18.90;99.90;;;;;;5028293;28;20183;-81
2022/09/08 02:01:02;;;;;;;24.20;21.90;;;18.90;99.90;;;;;;5026214;28;20200;-82
2022/09/08 02:03:29;;;;;;;23.92;21.48;;;18.70;99.90;;;;;;5045907;28;20207;-83
2022/09/08 02:06:02;;;;;;;21.38;19.48;;;18.70;99.90;;;;;;5051582;28;20295;-83
2022/09/08 02:08:30;;;;;;;24.15;21.85;;;18.70;99.90;;;;;;5040150;28;20314;-83
2022/09/08 02:11:00;;;;;;;23.85;21.60;;;18.60;1.00;;;;;;5019956;28;20184;-80
2022/09/08 02:13:28;;;;;;;23.25;21.10;;;18.60;1.00;;;;;;5033144;28;20196;-82
2022/09/08 02:16:06;;;;;;;19.90;18.02;;;18.70;1.00;;;;;;5018619;28;20211;-82
2022/09/08 02:18:34;;;;;;;21.85;19.90;;;18.90;99.90;;;;;;5042838;28;20246;-83
2022/09/08 02:21:16;;;;;;;26.55;23.60;;;18.80;99.90;;;;;;5026456;28;20243;-83
2022/09/08 02:23:46;;;;;;;24.65;22.08;;;18.70;99.90;;;;;;5029086;28;20469;-85
2022/09/08 02:26:21;;;;;;;26.50;23.85;;;18.60;1.00;;;;;;5044892;28;20202;-84
2022/09/08 02:28:51;;;;;;;25.17;22.67;;;18.60;1.00;;;;;;5041340;28;20203;-85
2022/09/08 02:31:19;;;;;;;25.98;23.58;;;18.50;1.00;;;;;;5042640;28;20219;-85
2022/09/08 02:33:47;;;;;;;23.52;21.35;;;18.50;1.00;;;;;;5025176;28;20330;-85
2022/09/08 02:36:14;;;;;;;24.17;22.05;;;18.50;1.00;;;;;;5004118;28;20199;-84
2022/09/08 02:38:42;;;;;;;25.27;23.00;;;18.50;1.00;;;;;;5037389;28;22051;-85
2022/09/08 02:41:10;;;;;;;24.83;22.33;;;18.60;1.00;;;;;;5021651;28;20222;-85
2022/09/08 02:43:37;;;;;;;25.50;23.10;;;18.70;1.00;;;;;;5024338;28;20711;-85
2022/09/08 02:46:09;;;;;;;22.50;20.40;;;18.80;99.90;;;;;;5034861;28;20199;-83
2022/09/08 02:48:36;;;;;;;22.48;20.27;;;18.80;1.00;;;;;;5037643;28;20202;-84
2022/09/08 02:51:06;;;;;;;29.15;26.25;;;18.80;99.90;;;;;;5021316;28;20209;-84
2022/09/08 02:53:33;;;;;;;26.27;23.77;;;18.80;99.90;;;;;;5037060;28;20300;-85
2022/09/08 02:56:02;;;;;;;26.25;23.75;;;18.80;99.90;;;;;;5038838;28;20430;-85
2022/09/08 02:58:29;;;;;;;30.15;27.05;;;18.70;99.90;;;;;;5030195;28;20196;-83
2022/09/08 03:00:56;;;;;;;29.20;26.38;;;18.60;99.90;;;;;;5032576;28;20555;-85
2022/09/08 03:03:24;;;;;;;28.88;25.85;;;18.40;1.00;;;;;;5024944;28;20196;-83
2022/09/08 03:05:52;;;;;;;29.45;26.42;;;18.30;1.00;;;;;;5033070;28;20254;-83
2022/09/08 03:08:21;;;;;;;27.85;25.15;;;18.40;1.00;;;;;;5056577;28;20202;-80
2022/09/08 03:10:48;;;;;;;26.48;24.00;;;18.70;1.00;;;;;;5030153;28;20199;-79
2022/09/08 03:13:16;;;;;;;27.40;24.83;;;18.80;1.00;;;;;;5020435;28;20196;-82
2022/09/08 03:15:44;;;;;;;28.95;26.10;;;18.70;1.00;;;;;;5021897;28;20619;-78
2022/09/08 03:18:11;;;;;;;30.27;27.23;;;18.60;1.00;;;;;;5014014;28;20518;-80
2022/09/08 03:20:39;;;;;;;31.42;28.42;;;18.40;1.00;;;;;;5012871;28;20199;-78
2022/09/08 03:23:07;;;;;;;33.30;29.90;;;18.00;1.00;;;;;;5028250;28;20510;-78
2022/09/08 03:25:36;;;;;;;35.15;31.60;;;17.80;68.80;;;;;;5029608;28;20281;-82
2022/09/08 03:28:04;;;;;;;36.45;33.00;;;17.60;99.90;;;;;;5025202;28;20232;-85
2022/09/08 03:30:32;;;;;;;38.55;34.85;;;17.40;1.00;;;;;;5029887;28;20223;-86
2022/09/08 03:32:59;;;;;;;38.70;35.00;;;17.30;1.00;;;;;;5013769;28;20259;-84
2022/09/08 03:35:26;;;;;;;40.58;35.95;;;17.20;1.00;;;;;;5028909;28;20703;-83
2022/09/08 03:37:54;;;;;;;40.70;36.50;;;17.20;1.00;;;;;;5045742;28;20195;-81
2022/09/08 03:40:21;;;;;;;41.42;37.10;;;17.20;1.00;;;;;;5013626;28;20199;-80
2022/09/08 03:42:48;;;;;;;40.83;36.67;;;17.20;1.00;;;;;;5024623;28;20812;-86
2022/09/08 03:45:17;;;;;;;38.30;34.65;;;17.20;1.00;;;;;;5025877;28;20226;-82
2022/09/08 03:47:45;;;;;;;40.70;36.58;;;17.40;1.00;;;;;;5032585;28;20207;-82
2022/09/08 03:50:14;;;;;;;39.13;35.33;;;17.50;1.00;;;;;;5032148;28;20235;-83
2022/09/08 03:52:41;;;;;;;39.75;35.90;;;17.50;1.00;;;;;;5049196;28;20689;-81
2022/09/08 03:55:10;;;;;;;39.53;35.65;;;17.50;99.90;;;;;;5048931;28;20226;-81
2022/09/08 03:57:38;;;;;;;43.10;38.60;;;17.40;1.00;;;;;;5050559;28;20257;-82
2022/09/08 04:00:08;;;;;;;44.40;39.72;;;17.20;6.50;;;;;;5031004;28;20863;-79
2022/09/08 04:02:39;;;;;;;48.00;42.85;;;17.20;99.90;;;;;;5049485;28;20191;-80
2022/09/08 04:05:07;;;;;;;48.97;43.87;;;17.00;99.90;;;;;;5051017;28;20202;-78
2022/09/08 04:07:35;;;;;;;46.93;41.77;;;17.10;56.60;;;;;;5030842;28;20213;-78
2022/09/08 04:10:04;;;;;;;46.40;41.70;;;17.20;1.00;;;;;;5048409;28;21180;-80
2022/09/08 04:12:42;;;;;;;47.92;42.95;;;17.10;1.00;;;;;;5064530;23;20821;-75
2022/09/08 04:15:09;;;;;;;56.37;50.30;;;17.20;1.00;;;;;;5042934;28;20264;-76
2022/09/08 04:17:37;;;;;;;64.57;57.45;;;17.30;1.00;;;;;;5041903;28;20208;-76
2022/09/08 04:20:05;;;;;;;60.88;54.55;;;17.50;99.90;;;;;;5037268;28;20196;-74
2022/09/08 04:22:32;;;;;;;60.42;54.13;;;17.70;99.90;;;;;;5040956;28;20191;-77
2022/09/08 04:25:00;;;;;;;48.35;43.47;;;17.90;1.00;;;;;;5041348;28;20295;-76
2022/09/08 04:27:27;;;;;;;44.25;39.97;;;18.00;99.90;;;;;;5039610;28;20207;-76
2022/09/08 04:29:54;;;;;;;42.22;37.90;;;17.90;1.00;;;;;;5024630;28;20704;-76
2022/09/08 04:32:21;;;;;;;44.78;40.10;;;17.90;1.00;;;;;;5041867;28;20199;-76
2022/09/08 04:34:49;;;;;;;48.53;42.35;;;17.60;1.00;;;;;;5026907;28;20207;-75
2022/09/08 04:37:18;;;;;;;57.00;47.88;;;17.10;99.90;;;;;;5038058;28;20204;-74
2022/09/08 04:39:47;;;;;;;54.70;46.25;;;17.20;99.90;;;;;;5040612;28;20200;-75
2022/09/08 04:42:15;;;;;;;47.78;40.65;;;17.20;99.90;;;;;;5040419;28;20742;-73
2022/09/08 04:44:42;;;;;;;80.35;67.25;;;16.90;99.90;;;;;;5041695;28;20253;-74
2022/09/08 04:47:08;;;;;;;57.25;46.88;;;17.10;99.90;;;;;;5024074;28;20192;-74
2022/09/08 04:49:35;;;;;;;53.97;44.83;;;17.20;99.90;;;;;;5042500;28;20206;-76
2022/09/08 04:52:02;;;;;;;49.42;42.67;;;17.20;99.90;;;;;;5032919;28;20204;-74
2022/09/08 04:54:30;;;;;;;53.55;43.33;;;17.30;99.90;;;;;;5022540;28;20261;-74
2022/09/08 04:56:56;;;;;;;54.17;46.35;;;17.30;99.90;;;;;;5025781;28;20191;-73
2022/09/08 04:59:25;;;;;;;54.08;44.33;;;17.40;99.90;;;;;;5038727;28;20206;-74
2022/09/08 05:01:52;;;;;;;50.63;40.95;;;17.40;99.90;;;;;;5041624;28;20206;-75
2022/09/08 05:04:19;;;;;;;46.47;38.40;;;17.30;99.90;;;;;;5026508;28;20649;-74
2022/09/08 05:06:46;;;;;;;33.70;29.83;;;17.20;99.90;;;;;;5046477;28;20196;-74
2022/09/08 05:09:14;;;;;;;28.02;24.98;;;17.20;99.90;;;;;;5045702;28;20291;-72
2022/09/08 05:11:40;;;;;;;30.88;24.30;;;17.10;99.90;;;;;;5045694;28;20226;-72
2022/09/08 05:14:07;;;;;;;26.88;20.88;;;17.20;99.90;;;;;;5028258;28;20253;-75
2022/09/08 05:16:35;;;;;;;20.70;18.55;;;17.30;99.90;;;;;;5041388;28;20230;-74
2022/09/08 05:19:05;;;;;;;18.88;16.98;;;17.30;99.90;;;;;;5045148;28;20287;-74
2022/09/08 05:21:34;;;;;;;17.33;15.23;;;17.40;99.90;;;;;;5031906;28;20206;-73
2022/09/08 05:24:04;;;;;;;14.93;13.52;;;17.40;99.90;;;;;;5029446;28;20194;-76
2022/09/08 05:26:32;;;;;;;12.98;11.05;;;17.40;99.90;;;;;;5026176;28;20217;-76
2022/09/08 05:29:00;;;;;;;11.40;10.20;;;17.40;99.90;;;;;;5026121;28;20207;-76
2022/09/08 05:31:29;;;;;;;9.88;8.52;;;17.50;99.90;;;;;;5043880;28;20199;-74
2022/09/08 05:33:57;;;;;;;9.57;8.68;;;17.40;99.90;;;;;;5029018;28;20195;-76
2022/09/08 05:36:27;;;;;;;10.00;6.95;;;17.50;99.90;;;;;;5046822;28;20225;-76
2022/09/08 05:38:55;;;;;;;7.88;6.97;;;17.50;99.90;;;;;;5044606;28;20211;-76
2022/09/08 05:41:24;;;;;;;6.22;5.63;;;17.50;99.90;;;;;;5044646;28;20192;-76
2022/09/08 05:43:55;;;;;;;7.15;5.40;;;17.60;99.90;;;;;;5049031;28;20191;-76
2022/09/08 05:46:25;;;;;;;6.22;4.88;;;17.60;99.90;;;;;;5048030;28;20196;-76
2022/09/08 05:48:54;;;;;;;6.10;4.45;;;17.60;99.90;;;;;;5043315;28;20207;-76
2022/09/08 05:51:21;;;;;;;7.38;4.20;;;17.60;99.90;;;;;;5041345;28;20196;-76
2022/09/08 05:53:48;;;;;;;4.25;3.95;;;17.60;99.90;;;;;;5039530;28;20901;-76
2022/09/08 05:56:20;;;;;;;5.90;4.00;;;17.80;99.90;;;;;;5032476;28;20226;-76
2022/09/08 05:58:57;;;;;;;9.43;4.13;;;17.90;1.00;;;;;;5048139;28;20604;-76
2022/09/08 06:01:30;;;;;;;4.07;3.67;;;17.90;99.90;;;;;;5027775;28;20659;-76
2022/09/08 06:03:59;;;;;;;4.15;3.83;;;18.00;99.90;;;;;;5045157;28;20200;-74
2022/09/08 06:06:30;;;;;;;5.90;5.30;;;18.00;1.00;;;;;;5045828;28;20267;-76
2022/09/08 06:09:00;;;;;;;12.48;7.65;;;18.20;1.00;;;;;;5028369;28;20195;-76
2022/09/08 06:11:29;;;;;;;9.77;8.80;;;18.30;99.90;;;;;;5040606;28;20191;-76
2022/09/08 06:13:56;;;;;;;10.07;8.23;;;18.40;99.90;;;;;;5042568;28;20231;-76
2022/09/08 06:16:24;;;;;;;9.82;8.75;;;18.30;99.90;;;;;;5037261;28;20233;-76
2022/09/08 06:18:51;;;;;;;6.20;4.43;;;18.20;99.90;;;;;;5025412;28;20200;-76
2022/09/08 06:21:24;;;;;;;7.20;4.15;;;18.20;99.90;;;;;;5030222;28;20204;-74
2022/09/08 06:23:54;;;;;;;3.47;3.15;;;18.20;99.90;;;;;;5043198;28;20200;-76
2022/09/08 06:27:11;;;;;;;6.78;3.78;;;18.30;99.90;;;;;;5039567;28;20198;-76
2022/09/08 06:29:57;;;;;;;6.00;2.95;;;18.30;90.40;;;;;;5000526;28;20790;-76
2022/09/08 06:32:39;;;;;;;4.13;2.92;;;18.30;99.90;;;;;;5038971;28;20674;-76
2022/09/08 06:35:12;;;;;;;4.85;3.08;;;18.10;99.90;;;;;;5049234;28;20227;-76
2022/09/08 06:37:51;;;;;;;6.70;3.20;;;17.90;1.00;;;;;;5042905;28;20557;-76
2022/09/08 06:40:25;;;;;;;4.40;2.92;;;18.00;1.00;;;;;;5044494;28;20219;-76
2022/09/08 06:43:10;;;;;;;6.78;3.40;;;17.90;1.00;;;;;;5024526;28;20630;-75
2022/09/08 06:45:55;;;;;;;4.78;3.47;;;18.00;1.00;;;;;;5037137;28;20278;-67
2022/09/08 06:48:33;;;;;;;7.47;4.57;;;17.90;1.00;;;;;;5024280;28;20191;-67
2022/09/08 06:51:22;;;;;;;4.72;4.10;;;17.90;1.00;;;;;;5041572;28;20698;-67
2022/09/08 06:54:07;;;;;;;7.78;5.53;;;17.90;1.00;;;;;;5041825;28;20215;-66
2022/09/08 06:56:51;;;;;;;9.93;5.93;;;17.80;1.00;;;;;;5041716;28;20226;-66
2022/09/08 06:59:43;;;;;;;4.50;4.00;;;17.90;1.00;;;;;;5042507;28;20187;-67
2022/09/08 07:02:32;;;;;;;4.93;4.43;;;17.90;99.90;;;;;;5044904;28;20686;-66
2022/09/08 07:05:10;;;;;;;5.93;4.57;;;17.90;1.00;;;;;;5042026;28;20769;-67
2022/09/08 07:08:01;;;;;;;6.50;4.90;;;17.90;1.00;;;;;;5045188;28;20582;-66
2022/09/08 07:10:45;;;;;;;9.85;4.57;;;17.90;99.90;;;;;;5040158;28;20211;-69
2022/09/08 07:13:45;;;;;;;7.25;4.90;;;17.90;99.90;;;;;;5045809;28;20239;-64
2022/09/08 07:16:37;;;;;;;5.88;4.45;;;17.90;99.90;;;;;;5044979;28;21224;-64
2022/09/08 07:19:44;;;;;;;6.18;4.20;;;17.70;99.90;;;;;;5044950;28;20235;-66
2022/09/08 07:22:48;;;;;;;5.95;4.05;;;17.80;1.00;;;;;;5034643;28;20639;-67
2022/09/08 07:25:24;;;;;;;7.25;4.35;;;17.80;1.00;;;;;;5045496;28;20569;-70
2022/09/08 07:27:59;;;;;;;8.80;4.95;;;17.70;1.00;;;;;;5042467;28;20195;-65
2022/09/08 07:30:26;;;;;;;9.48;5.00;;;17.80;1.00;;;;;;5042621;28;20217;-67
2022/09/08 07:33:03;;;;;;;8.88;5.15;;;17.80;99.90;;;;;;5042248;28;20286;-68
2022/09/08 07:35:54;;;;;;;12.60;10.57;;;17.80;99.90;;;;;;5044553;28;20215;-65
2022/09/08 07:38:51;;;;;;;6.82;5.10;;;17.80;1.00;;;;;;5047209;28;20222;-65
2022/09/08 07:41:34;;;;;;;11.45;6.93;;;17.70;99.90;;;;;;5038949;28;20196;-65
2022/09/08 07:44:09;;;;;;;7.47;4.97;;;17.70;99.90;;;;;;5039609;28;20202;-66
2022/09/08 07:47:13;;;;;;;6.18;4.55;;;17.70;1.00;;;;;;5030063;28;20204;-65
2022/09/08 07:49:57;;;;;;;9.65;4.95;;;17.50;99.90;;;;;;5042598;28;20724;-67
2022/09/08 07:52:31;;;;;;;6.05;5.10;;;17.50;1.00;;;;;;5041753;28;20286;-66
2022/09/08 07:54:59;;;;;;;8.07;5.28;;;17.40;20.20;;;;;;5040035;28;20230;-66
2022/09/08 07:58:09;;;;;;;10.05;5.70;;;17.20;1.00;;;;;;5041548;28;20211;-69
2022/09/08 08:00:57;;;;;;;8.45;5.45;;;17.10;1.00;;;;;;5041925;28;20199;-66
2022/09/08 08:03:27;;;;;;;14.30;5.97;;;17.00;33.50;;;;;;5041937;28;20200;-66
2022/09/08 08:06:16;;;;;;;11.65;7.60;;;17.00;1.00;;;;;;5023113;28;20796;-66
2022/09/08 08:08:58;;;;;;;10.77;8.55;;;17.20;99.40;;;;;;5040909;28;20199;-66
2022/09/08 08:12:04;;;;;;;14.00;9.32;;;17.40;40.70;;;;;;5023921;28;20207;-66
2022/09/08 08:14:37;;;;;;;12.27;8.32;;;17.10;17.70;;;;;;5036478;28;20241;-67
2022/09/08 08:17:13;;;;;;;11.77;8.83;;;17.00;99.90;;;;;;5023252;28;20204;-68
2022/09/08 08:19:52;;;;;;;21.88;16.40;;;16.90;1.00;;;;;;5009740;28;20195;-68
2022/09/08 08:22:33;;;;;;;11.15;7.18;;;17.20;1.00;;;;;;5041509;28;20183;-67
2022/09/08 08:25:15;;;;;;;9.60;7.05;;;17.20;1.00;;;;;;5027395;28;20192;-67
2022/09/08 08:27:51;;;;;;;7.75;6.35;;;17.00;99.90;;;;;;5043038;28;20199;-67
2022/09/08 08:30:21;;;;;;;7.68;5.38;;;17.20;99.90;;;;;;5043647;28;20195;-68
2022/09/08 08:32:58;;;;;;;10.60;5.90;;;17.20;99.90;;;;;;5025798;28;20263;-67
2022/09/08 08:35:33;;;;;;;9.68;6.25;;;17.40;1.00;;;;;;5044293;28;20217;-67
2022/09/08 08:38:03;;;;;;;7.13;5.85;;;17.40;99.90;;;;;;5028764;28;20194;-67
2022/09/08 08:40:56;;;;;;;10.00;6.22;;;17.60;99.90;;;;;;5049818;28;20284;-68
2022/09/08 08:43:38;;;;;;;7.57;5.97;;;17.60;1.00;;;;;;5041284;28;20200;-68
2022/09/08 08:46:41;;;;;;;8.80;6.50;;;17.70;1.00;;;;;;5046649;28;20199;-68
2022/09/08 08:49:35;;;;;;;9.48;5.97;;;17.80;1.00;;;;;;5041569;28;20222;-64
2022/09/08 08:52:31;;;;;;;12.23;6.18;;;17.80;1.00;;;;;;5047658;28;20209;-66
2022/09/08 08:55:49;;;;;;;9.52;6.75;;;17.80;1.00;;;;;;5040070;28;20666;-65
2022/09/08 08:58:59;;;;;;;7.07;6.28;;;18.10;1.00;;;;;;5028225;28;20195;-65
2022/09/08 09:01:58;;;;;;;6.00;5.20;;;18.20;99.90;;;;;;5047504;28;20218;-65
2022/09/08 09:04:48;;;;;;;7.68;5.68;;;18.20;1.00;;;;;;5045932;28;20192;-68
2022/09/08 09:07:31;;;;;;;8.27;5.80;;;18.30;1.00;;;;;;5045252;28;20196;-68
2022/09/08 09:10:07;;;;;;;8.60;6.07;;;18.40;1.00;;;;;;5043851;28;20281;-67
2022/09/08 09:13:04;;;;;;;6.40;5.00;;;18.60;1.00;;;;;;5047799;28;20226;-65
2022/09/08 09:15:56;;;;;;;6.65;5.13;;;18.80;99.90;;;;;;5029398;28;20718;-66
2022/09/08 09:18:56;;;;;;;6.72;4.10;;;19.00;99.90;;;;;;5046424;28;20280;-65
2022/09/08 09:21:34;;;;;;;6.43;4.85;;;19.10;86.30;;;;;;5045514;28;21072;-65
2022/09/08 09:24:24;;;;;;;5.03;3.90;;;19.50;1.00;;;;;;5046773;28;20195;-67
2022/09/08 09:27:00;;;;;;;6.57;4.55;;;19.60;1.00;;;;;;5045816;28;20545;-67
2022/09/08 09:29:36;;;;;;;7.55;4.60;;;20.00;1.00;;;;;;5030624;28;20204;-69
2022/09/08 09:32:37;;;;;;;7.22;5.03;;;20.00;1.00;;;;;;5046851;28;20234;-69
2022/09/08 09:35:27;;;;;;;7.35;5.22;;;20.30;99.90;;;;;;5008255;28;20195;-67
2022/09/08 09:38:13;;;;;;;7.30;5.22;;;20.50;1.00;;;;;;5049225;28;20202;-66
2022/09/08 09:41:09;;;;;;;8.00;5.82;;;20.70;1.00;;;;;;5049213;28;20179;-68
2022/09/08 09:44:06;;;;;;;6.68;5.88;;;20.70;1.00;;;;;;5044011;28;20307;-66
2022/09/08 09:47:08;;;;;;;7.18;5.78;;;20.50;1.00;;;;;;5045196;28;20291;-67
2022/09/08 09:50:03;;;;;;;5.90;5.28;;;20.00;1.00;;;;;;5047201;28;20675;-66
2022/09/08 09:52:32;;;;;;;6.25;5.45;;;19.50;1.00;;;;;;5043272;28;20250;-69
2022/09/08 09:55:41;;;;;;;8.57;5.32;;;19.20;1.00;;;;;;5045508;28;20196;-67
2022/09/08 09:58:56;;;;;;;6.50;5.60;;;18.80;99.90;;;;;;5039955;28;20204;-65
2022/09/08 10:01:53;;;;;;;7.88;6.35;;;18.60;99.90;;;;;;5044426;28;20206;-67
2022/09/08 10:04:32;;;;;;;7.38;6.45;;;18.50;99.90;;;;;;5046190;28;20734;-68
2022/09/08 10:07:28;;;;;;;7.68;7.03;;;18.60;1.00;;;;;;5044781;28;20195;-67
2022/09/08 10:10:35;;;;;;;7.20;6.60;;;18.70;20.20;;;;;;5044670;28;20615;-67
2022/09/08 10:13:39;;;;;;;7.70;6.10;;;18.80;1.00;;;;;;5043263;28;20227;-68
2022/09/08 10:16:39;;;;;;;6.75;5.90;;;18.90;1.00;;;;;;5024961;28;20211;-66
2022/09/08 10:19:46;;;;;;;6.82;6.13;;;19.10;1.00;;;;;;5027980;28;20214;-66
2022/09/08 10:22:21;;;;;;;5.93;5.35;;;19.40;1.00;;;;;;5026174;28;20293;-66
2022/09/08 10:25:13;;;;;;;6.00;5.50;;;19.60;1.00;;;;;;5046964;28;20195;-67
2022/09/08 10:27:43;;;;;;;6.43;5.50;;;19.60;1.00;;;;;;5046762;28;20200;-65
2022/09/08 10:30:53;;;;;;;7.25;5.47;;;19.80;1.00;;;;;;5045347;28;20222;-65
2022/09/08 10:34:01;;;;;;;8.80;4.93;;;19.90;99.90;;;;;;5012198;28;20211;-67
2022/09/08 10:36:39;;;;;;;23.92;15.48;;;20.00;94.60;;;;;;5042769;28;20222;-66
2022/09/08 10:39:37;;;;;;;13.25;9.65;;;19.80;99.90;;;;;;5044992;28;20193;-66
2022/09/08 10:42:07;;;;;;;11.65;7.78;;;19.30;99.90;;;;;;5023608;28;20216;-66
2022/09/08 10:44:50;;;;;;;23.35;17.25;;;18.80;1.00;;;;;;5037588;28;20650;-65
2022/09/08 10:47:45;;;;;;;12.55;10.68;;;18.80;89.20;;;;;;5029342;28;20202;-67
2022/09/08 10:50:28;;;;;;;14.38;9.90;;;18.70;1.00;;;;;;5029561;28;20203;-67
2022/09/08 10:53:22;;;;;;;14.18;12.48;;;18.80;99.90;;;;;;5046044;28;20631;-68
2022/09/08 10:55:58;;;;;;;11.18;10.07;;;18.90;1.00;;;;;;5044931;28;20334;-67
2022/09/08 10:59:03;;;;;;;11.32;10.27;;;19.20;1.00;;;;;;5041360;28;20191;-67
2022/09/08 11:01:46;;;;;;;11.43;10.00;;;19.30;1.00;;;;;;5045357;28;20202;-67
2022/09/08 11:04:28;;;;;;;11.60;10.07;;;19.80;1.00;;;;;;5026583;28;20247;-66
2022/09/08 11:07:03;;;;;;;11.45;9.75;;;20.20;99.90;;;;;;5044301;28;20191;-65
2022/09/08 11:09:37;;;;;;;9.30;7.45;;;20.00;1.00;;;;;;5027879;28;20594;-67
2022/09/08 11:12:39;;;;;;;10.52;9.50;;;19.90;1.00;;;;;;5043429;28;20205;-65
2022/09/08 11:15:15;;;;;;;17.08;15.15;;;20.30;99.90;;;;;;5030804;28;20280;-66
2022/09/08 11:17:47;;;;;;;12.02;10.27;;;21.20;1.00;;;;;;5046751;28;20215;-66
2022/09/08 11:20:28;;;;;;;11.73;10.38;;;21.70;99.90;;;;;;5029807;28;20207;-66
2022/09/08 11:23:33;;;;;;;11.52;9.50;;;22.70;99.90;;;;;;5045243;28;20282;-65
2022/09/08 11:26:03;;;;;;;9.10;8.02;;;22.80;56.80;;;;;;5045331;28;20200;-65
2022/09/08 11:28:48;;;;;;;11.30;7.50;;;23.00;1.00;;;;;;5044855;28;20203;-65
2022/09/08 11:31:31;;;;;;;10.07;6.30;;;23.00;1.00;;;;;;5027807;28;20203;-66
2022/09/08 11:34:24;;;;;;;8.63;5.75;;;23.40;1.00;;;;;;5046090;28;20187;-65
2022/09/08 11:37:16;;;;;;;8.50;4.85;;;23.80;1.00;;;;;;5044962;28;20219;-66
2022/09/08 11:40:17;;;;;;;5.30;4.15;;;23.70;99.90;;;;;;5040811;28;20203;-66
2022/09/08 11:42:58;;;;;;;4.50;3.53;;;23.40;1.00;;;;;;5039445;28;20195;-66
2022/09/08 11:46:02;;;;;;;7.28;3.28;;;25.60;1.00;;;;;;5040157;28;20660;-63
2022/09/08 11:48:49;;;;;;;4.32;2.92;;;27.40;99.90;;;;;;5041828;28;20203;-64
2022/09/08 11:52:05;;;;;;;3.05;2.63;;;26.10;99.90;;;;;;5025940;28;20302;-64
2022/09/08 11:55:03;;;;;;;4.93;3.03;;;26.50;90.90;;;;;;5042140;28;20211;-65
2022/09/08 11:57:48;;;;;;;3.65;2.95;;;26.30;99.90;;;;;;5039779;28;20706;-63
2022/09/08 12:00:41;;;;;;;6.25;2.95;;;25.30;99.90;;;;;;5039942;28;20192;-64
2022/09/08 12:03:48;;;;;;;4.00;3.03;;;23.80;99.90;;;;;;5045707;28;20196;-62
2022/09/08 12:06:34;;;;;;;4.72;2.88;;;24.20;99.90;;;;;;5023165;28;20214;-66
2022/09/08 12:09:28;;;;;;;6.13;2.65;;;24.80;99.90;;;;;;5039132;28;20769;-63
2022/09/08 12:12:12;;;;;;;3.25;2.63;;;24.30;99.90;;;;;;5042335;28;20640;-63
2022/09/08 12:14:51;;;;;;;3.38;2.78;;;23.40;99.90;;;;;;5042274;28;20235;-63
2022/09/08 12:17:25;;;;;;;5.93;2.83;;;23.20;99.90;;;;;;5042938;28;20294;-64
2022/09/08 12:20:15;;;;;;;4.85;2.45;;;23.40;99.90;;;;;;5026043;28;20195;-66
2022/09/08 12:22:55;;;;;;;4.45;2.50;;;22.90;99.90;;;;;;5029145;28;20295;-64
2022/09/08 12:25:41;;;;;;;4.18;2.40;;;23.10;99.90;;;;;;5044379;28;20199;-63
2022/09/08 12:28:28;;;;;;;4.18;2.33;;;23.50;99.90;;;;;;5044323;28;20199;-63
2022/09/08 12:31:34;;;;;;;3.20;2.50;;;23.50;99.90;;;;;;5042126;28;20245;-66
2022/09/08 12:34:24;;;;;;;2.88;1.65;;;23.00;99.90;;;;;;5025820;28;20245;-65
2022/09/08 12:37:04;;;;;;;4.72;2.78;;;23.40;99.90;;;;;;5042752;28;20999;-62
2022/09/08 12:53:30;;;;;;;3.13;1.60;;;24.30;99.90;;;;;;4926665;29;20202;-63
2022/09/08 12:56:33;;;;;;;2.80;1.60;;;24.40;99.90;;;;;;4933488;28;20210;-64
2022/09/08 12:59:37;;;;;;;3.65;1.67;;;24.60;99.90;;;;;;4984536;28;20204;-66
2022/09/08 13:02:26;;;;;;;4.75;1.33;;;23.80;99.90;;;;;;5040999;28;20588;-64
2022/09/08 13:05:27;;;;;;;1.92;1.15;;;23.70;97.00;;;;;;5040057;28;20238;-65
2022/09/08 13:08:42;;;;;;;3.60;1.42;;;23.20;99.90;;;;;;5039938;28;20210;-65
2022/09/08 13:11:53;;;;;;;2.65;1.20;;;23.40;99.90;;;;;;4983664;28;20226;-64
2022/09/08 13:14:38;;;;;;;7.03;2.05;;;23.50;99.90;;;;;;5008785;28;20227;-62
2022/09/08 13:17:21;;;;;;;3.75;1.50;;;23.50;94.00;;;;;;5038806;28;20208;-63
2022/09/08 13:20:05;;;;;;;4.78;1.33;;;23.30;35.30;;;;;;5043285;28;20194;-62
2022/09/08 13:22:59;;;;;;;3.22;1.17;;;22.90;37.70;;;;;;5037179;28;20298;-62
2022/09/08 13:25:35;;;;;;;2.00;1.10;;;22.70;99.90;;;;;;5046700;28;20208;-63
2022/09/08 13:28:12;;;;;;;6.13;1.38;;;22.90;99.90;;;;;;5046316;28;20613;-63
2022/09/08 13:31:06;;;;;;;2.55;1.20;;;22.70;45.80;;;;;;5046455;28;20191;-64
2022/09/08 13:33:39;;;;;;;2.95;1.40;;;22.40;40.60;;;;;;5023658;28;20204;-62
2022/09/08 13:36:21;;;;;;;3.10;2.00;;;22.60;31.00;;;;;;5048117;28;20206;-64
2022/09/08 13:39:16;;;;;;;3.25;1.30;;;22.70;56.90;;;;;;5049130;28;20205;-64
2022/09/08 13:42:01;;;;;;;2.33;1.38;;;23.00;43.60;;;;;;5040771;28;20230;-63
2022/09/08 13:44:40;;;;;;;2.58;1.17;;;22.90;10.00;;;;;;5047276;28;20223;-63
2022/09/08 13:47:19;;;;;;;2.67;1.17;;;22.70;4.30;;;;;;5029684;28;20195;-62
2022/09/08 13:50:27;;;;;;;3.00;1.10;;;22.90;24.30;;;;;;5053724;28;20223;-64
2022/09/08 13:52:59;;;;;;;2.35;0.90;;;22.80;12.50;;;;;;5018531;28;20211;-63
2022/09/08 13:56:00;;;;;;;2.95;1.20;;;23.10;25.30;;;;;;5048812;28;20298;-64
2022/09/08 13:58:46;;;;;;;2.50;1.08;;;23.10;2.00;;;;;;5013892;28;20245;-64
2022/09/08 14:01:27;;;;;;;3.70;1.58;;;23.00;2.20;;;;;;5049387;28;20568;-61